NCAR-RAP Real-Time Weather Data

Output produced by METARs form (23 June 2018  19:29 UTC)
found at http://weather.rap.ucar.edu/surface/
 
RJBD 231000Z VRB01KT 9000 -SHRA FEW008 SCT035 BKN070 21/20 Q1005
RJBD 230900Z 26003KT 210V320 9999 -SHRA FEW008 SCT025 BKN035 21/20 Q1005
RJBD 230800Z 31005KT 9999 FEW008 SCT020 BKN030 21/19 Q1004
RJBD 230700Z 30007KT 260V340 9999 FEW003 BKN030 BKN050 22/20 Q1003
RJBD 230600Z VRB01KT 9999 VCSH FEW003 BKN030 BKN050 21/20 Q1003
RJBD 230500Z 36004KT 8000 -SHRA FEW002 SCT010 BKN030 21/21 Q1002
RJBD 230443Z 32006KT 290V360 9000 -SHRA FEW004 SCT010 BKN030 21/20 Q1002 RMK 1ST004 4ST010 6CU030 A2961
RJBD 230400Z 16011KT 8000 SHRA FEW004 BKN006 BKN025 23/22 Q1003
RJBD 230325Z 16015KT 3000 -SHRA BR FEW002 BKN006 BKN020 23/22 Q1003 RMK 1ST002 5ST006 6CU020 A2963
RJBD 230300Z 16016KT 6000 -SHRA FEW006 BKN008 BKN020 23/22 Q1003
RJBD 230200Z VRB05KT 9999 -SHRA FEW008 BKN013 BKN030 22/22 Q1003
RJBD 230100Z 11003KT 070V140 9999 -SHRA FEW008 BKN015 BKN030 21/20 Q1004
RJBD 230041Z 10005KT 9999 -SHRA FEW008 SCT015 BKN040 20/20 Q1004 RMK 1ST008 4CU015 6CU040 A2966
RJBD 230021Z 08006KT 040V120 4000 -SHRA BR FEW004 SCT007 BKN030 20/19 Q1004 RMK 1ST004 4ST007 6CU030 A2967
RJBD 230003Z 35007KT 340V040 1500 +SHRA BR FEW002 SCT015 BKN020 20/19 Q1004 RMK 1ST002 4CU015 6CU020 A2967
RJBD 230000Z 35007KT 3000 SHRA BR FEW002 SCT012 BKN020 20/19 Q1004
RJBD 222300Z 03008KT 5000 SHRA BR FEW004 SCT030 BKN040 20/19 Q1004
RJBD 222240Z 05011KT 6000 SHRA BR FEW006 SCT030 BKN050 20/19 Q1003 RMK 1ST006 4CU030 6SC050 A2964 P/FR
RJBD 221000Z 14005KT 9999 FEW008 SCT015 BKN180 22/19 Q1010
RJBD 220900Z 16006KT 130V200 9999 FEW008 SCT012 BKN015 22/19 Q1010
RJBD 220800Z 16011KT 9999 FEW005 SCT008 BKN020 23/20 Q1010
RJBD 220700Z 16013KT 9999 FEW005 SCT008 BKN015 23/21 Q1009
RJBD 220600Z 19006KT 140V230 9999 FEW009 BKN/// 24/21 Q1009
RJBD 220500Z 19010KT 150V210 9999 FEW005 BKN/// 24/21 Q1009
RJBD 220400Z 32005KT 280V350 9999 FEW035 BKN/// 28/13 Q1009
RJBD 220300Z 28005KT 230V310 9999 FEW035 SCT/// 27/20 Q1009
RJBD 220200Z 33003KT 280V020 9999 FEW035 BKN/// 26/20 Q1010
RJBD 220100Z 36005KT 340V040 9999 FEW040 BKN/// 25/20 Q1010
RJBD 220000Z 32004KT 280V010 9999 FEW040 BKN/// 24/19 Q1011
RJBD 212300Z 36003KT 310V060 CAVOK 23/19 Q1010
RJBD 212240Z 01004KT 330V050 CAVOK 23/20 Q1010 RMK A2984
RJBD 211000Z 15005KT 9999 FEW010 SCT015 BKN025 22/20 Q1007
RJBD 210900Z 17003KT 130V230 9999 FEW010 BKN015 BKN025 22/20 Q1007
RJBD 210800Z VRB04KT 9999 FEW010 BKN025 BKN045 22/20 Q1006